PWSweather.com
Personal Weather Stations
Station Observations
WD4JKH
Forsyth, GA 31029

Forsyth, GA 31029

Lat: 33.033225, Lon: -83.927995

Elevation: 709

Station Type: Davis Vantage VUE

High Low Average
Temperature 82.9°F28.3°C 56.5°F13.6°C 70.7°F21.5°C
Dew Point 58.9°F14.9°C 50.0°F10.0°C 53.8°F12.1°C
Winds 8.1 mph 13.0 kmh Calm Calm 3.0 mph ENE4.8 kmh ENE
Wind Gusts 16.0 mph25.7 kmh 1.0 mph1.6 kmh 7.0 mph11.3 kmh
Humidity 86% 35% 58%
Pressure 30.30 in1026.1 mb 30.19 in1022.4 mb -
Precipitation 0.00 in0.0 mm - -
Hour Temp Dew Point Humidity Winds Wind Gusts Pressure Precip Precip Rate Daily Precip Total
12:01 AM 67.5°F19.7°C 52.8°F11.6°C 59% 4.0 mph ENE6.4 kmh ENE 13.0 mph20.9 kmh 30.20 in1022.7 mb 0.00 in0.0 mm 0.00 in0.0 mm 0.00 in0.0 mm
12:06 AM 67.3°F19.6°C 52.6°F11.4°C 59% 2.9 mph ENE4.7 kmh ENE 11.0 mph17.7 kmh 30.20 in1022.7 mb 0.00 in0.0 mm 0.00 in0.0 mm 0.00 in0.0 mm
12:11 AM 67.3°F19.6°C 52.6°F11.4°C 59% 3.2 mph E5.1 kmh E 8.0 mph12.9 kmh 30.20 in1022.7 mb 0.00 in0.0 mm 0.00 in0.0 mm 0.00 in0.0 mm
12:16 AM 67.1°F19.5°C 52.9°F11.6°C 60% 2.4 mph E3.9 kmh E 8.0 mph12.9 kmh 30.21 in1023.0 mb 0.00 in0.0 mm 0.00 in0.0 mm 0.00 in0.0 mm
12:21 AM 67.0°F19.4°C 52.4°F11.3°C 59% 3.8 mph E6.1 kmh E 7.0 mph11.3 kmh 30.21 in1023.0 mb 0.00 in0.0 mm 0.00 in0.0 mm 0.00 in0.0 mm
12:26 AM 67.1°F19.5°C 52.4°F11.3°C 59% 3.3 mph E5.3 kmh E 9.0 mph14.5 kmh 30.21 in1023.0 mb 0.00 in0.0 mm 0.00 in0.0 mm 0.00 in0.0 mm
12:31 AM 67.0°F19.4°C 51.9°F11.1°C 58% 3.4 mph E5.5 kmh E 9.0 mph14.5 kmh 30.21 in1023.0 mb 0.00 in0.0 mm 0.00 in0.0 mm 0.00 in0.0 mm
12:36 AM 66.9°F19.4°C 51.6°F10.9°C 58% 3.3 mph E5.3 kmh E 9.0 mph14.5 kmh 30.21 in1023.0 mb 0.00 in0.0 mm 0.00 in0.0 mm 0.00 in0.0 mm
12:41 AM 66.8°F19.3°C 52.0°F11.1°C 59% 2.2 mph E3.5 kmh E 9.0 mph14.5 kmh 30.21 in1023.0 mb 0.00 in0.0 mm 0.00 in0.0 mm 0.00 in0.0 mm
12:46 AM 66.6°F19.2°C 51.8°F11.0°C 59% 2.2 mph ENE3.5 kmh ENE 7.0 mph11.3 kmh 30.21 in1023.0 mb 0.00 in0.0 mm 0.00 in0.0 mm 0.00 in0.0 mm
12:51 AM 66.5°F19.2°C 51.9°F11.1°C 59% 2.4 mph E3.9 kmh E 5.0 mph8.0 kmh 30.21 in1023.0 mb 0.00 in0.0 mm 0.00 in0.0 mm 0.00 in0.0 mm
12:56 AM 66.4°F19.1°C 52.3°F11.3°C 60% 2.7 mph E4.3 kmh E 6.0 mph9.7 kmh 30.21 in1023.0 mb 0.00 in0.0 mm 0.00 in0.0 mm 0.00 in0.0 mm
01:01 AM 66.4°F19.1°C 52.3°F11.3°C 60% 3.3 mph E5.3 kmh E 8.0 mph12.9 kmh 30.22 in1023.4 mb 0.00 in0.0 mm 0.00 in0.0 mm 0.00 in0.0 mm
01:06 AM 66.2°F19.0°C 52.1°F11.2°C 60% 2.2 mph E3.5 kmh E 8.0 mph12.9 kmh 30.22 in1023.4 mb 0.00 in0.0 mm 0.00 in0.0 mm 0.00 in0.0 mm
01:11 AM 66.0°F18.9°C 52.3°F11.3°C 61% 2.7 mph E4.3 kmh E 8.0 mph12.9 kmh 30.22 in1023.4 mb 0.00 in0.0 mm 0.00 in0.0 mm 0.00 in0.0 mm
01:16 AM 65.9°F18.8°C 52.2°F11.2°C 61% 2.5 mph E4.0 kmh E 8.0 mph12.9 kmh 30.22 in1023.4 mb 0.00 in0.0 mm 0.00 in0.0 mm 0.00 in0.0 mm
01:21 AM 65.7°F18.7°C 52.5°F11.4°C 62% 2.3 mph E3.7 kmh E 8.0 mph12.9 kmh 30.22 in1023.4 mb 0.00 in0.0 mm 0.00 in0.0 mm 0.00 in0.0 mm
01:26 AM 65.6°F18.7°C 52.4°F11.3°C 62% 2.0 mph E3.2 kmh E 6.0 mph9.7 kmh 30.22 in1023.4 mb 0.00 in0.0 mm 0.00 in0.0 mm 0.00 in0.0 mm
01:31 AM 65.4°F18.6°C 52.2°F11.2°C 62% 2.7 mph E4.3 kmh E 6.0 mph9.7 kmh 30.22 in1023.4 mb 0.00 in0.0 mm 0.00 in0.0 mm 0.00 in0.0 mm
01:36 AM 65.3°F18.5°C 52.5°F11.4°C 63% 1.3 mph E2.1 kmh E 6.0 mph9.7 kmh 30.22 in1023.4 mb 0.00 in0.0 mm 0.00 in0.0 mm 0.00 in0.0 mm
01:41 AM 65.1°F18.4°C 52.4°F11.3°C 63% 2.1 mph ENE3.4 kmh ENE 5.0 mph8.0 kmh 30.22 in1023.4 mb 0.00 in0.0 mm 0.00 in0.0 mm 0.00 in0.0 mm
01:46 AM 65.0°F18.3°C 52.3°F11.3°C 63% 1.6 mph E2.6 kmh E 5.0 mph8.0 kmh 30.22 in1023.4 mb 0.00 in0.0 mm 0.00 in0.0 mm 0.00 in0.0 mm
01:51 AM 64.9°F18.3°C 52.6°F11.4°C 64% 2.1 mph ENE3.4 kmh ENE 5.0 mph8.0 kmh 30.22 in1023.4 mb 0.00 in0.0 mm 0.00 in0.0 mm 0.00 in0.0 mm
01:55 AM 64.8°F18.2°C 52.9°F11.6°C 65% 1.4 mph ENE2.3 kmh ENE 4.0 mph6.4 kmh 30.22 in1023.4 mb 0.00 in0.0 mm 0.00 in0.0 mm 0.00 in0.0 mm
02:00 AM 64.3°F17.9°C 53.3°F11.8°C 67% 1.8 mph NE2.9 kmh NE 4.0 mph6.4 kmh 30.22 in1023.4 mb 0.00 in0.0 mm 0.00 in0.0 mm 0.00 in0.0 mm
02:05 AM 63.7°F17.6°C 53.1°F11.7°C 68% 1.1 mph NE1.8 kmh NE 4.0 mph6.4 kmh 30.22 in1023.4 mb 0.00 in0.0 mm 0.00 in0.0 mm 0.00 in0.0 mm
02:10 AM 63.3°F17.4°C 53.1°F11.7°C 69% 2.0 mph NE3.2 kmh NE 4.0 mph6.4 kmh 30.22 in1023.4 mb 0.00 in0.0 mm 0.00 in0.0 mm 0.00 in0.0 mm
02:15 AM 63.3°F17.4°C 52.7°F11.5°C 68% 1.9 mph NE3.1 kmh NE 5.0 mph8.0 kmh 30.22 in1023.4 mb 0.00 in0.0 mm 0.00 in0.0 mm 0.00 in0.0 mm
02:20 AM 63.1°F17.3°C 52.5°F11.4°C 68% 2.4 mph NE3.9 kmh NE 5.0 mph8.0 kmh 30.22 in1023.4 mb 0.00 in0.0 mm 0.00 in0.0 mm 0.00 in0.0 mm
02:25 AM 62.7°F17.1°C 52.9°F11.6°C 70% 1.9 mph NE3.1 kmh NE 5.0 mph8.0 kmh 30.22 in1023.4 mb 0.00 in0.0 mm 0.00 in0.0 mm 0.00 in0.0 mm
02:30 AM 62.4°F16.9°C 52.6°F11.4°C 70% 2.2 mph NE3.5 kmh NE 5.0 mph8.0 kmh 30.22 in1023.4 mb 0.00 in0.0 mm 0.00 in0.0 mm 0.00 in0.0 mm
02:35 AM 62.2°F16.8°C 52.4°F11.3°C 70% 2.6 mph NE4.2 kmh NE 5.0 mph8.0 kmh 30.22 in1023.4 mb 0.00 in0.0 mm 0.00 in0.0 mm 0.00 in0.0 mm
02:40 AM 62.0°F16.7°C 52.2°F11.2°C 70% 2.9 mph NE4.7 kmh NE 6.0 mph9.7 kmh 30.21 in1023.0 mb 0.00 in0.0 mm 0.00 in0.0 mm 0.00 in0.0 mm
02:45 AM 61.8°F16.6°C 52.1°F11.2°C 70% 3.5 mph NE5.6 kmh NE 6.0 mph9.7 kmh 30.21 in1023.0 mb 0.00 in0.0 mm 0.00 in0.0 mm 0.00 in0.0 mm
02:50 AM 61.6°F16.4°C 52.2°F11.2°C 71% 2.5 mph NE4.0 kmh NE 6.0 mph9.7 kmh 30.21 in1023.0 mb 0.00 in0.0 mm 0.00 in0.0 mm 0.00 in0.0 mm
02:55 AM 61.4°F16.3°C 52.4°F11.3°C 72% 2.0 mph NE3.2 kmh NE 6.0 mph9.7 kmh 30.21 in1023.0 mb 0.00 in0.0 mm 0.00 in0.0 mm 0.00 in0.0 mm
03:00 AM 61.2°F16.2°C 52.2°F11.2°C 72% 3.1 mph NE5.0 kmh NE 6.0 mph9.7 kmh 30.21 in1023.0 mb 0.00 in0.0 mm 0.00 in0.0 mm 0.00 in0.0 mm
03:05 AM 61.1°F16.2°C 52.1°F11.2°C 72% 2.4 mph NE3.9 kmh NE 6.0 mph9.7 kmh 30.21 in1023.0 mb 0.00 in0.0 mm 0.00 in0.0 mm 0.00 in0.0 mm
03:10 AM 60.9°F16.1°C 51.9°F11.1°C 72% 2.4 mph NE3.9 kmh NE 6.0 mph9.7 kmh 30.21 in1023.0 mb 0.00 in0.0 mm 0.00 in0.0 mm 0.00 in0.0 mm
03:15 AM 60.8°F16.0°C 52.2°F11.2°C 73% 2.6 mph NE4.2 kmh NE 6.0 mph9.7 kmh 30.22 in1023.4 mb 0.00 in0.0 mm 0.00 in0.0 mm 0.00 in0.0 mm
03:20 AM 60.7°F15.9°C 52.1°F11.2°C 73% 2.9 mph NE4.7 kmh NE 6.0 mph9.7 kmh 30.21 in1023.0 mb 0.00 in0.0 mm 0.00 in0.0 mm 0.00 in0.0 mm
03:25 AM 60.5°F15.8°C 51.9°F11.1°C 73% 2.8 mph NE4.5 kmh NE 6.0 mph9.7 kmh 30.22 in1023.4 mb 0.00 in0.0 mm 0.00 in0.0 mm 0.00 in0.0 mm
03:30 AM 60.4°F15.8°C 51.8°F11.0°C 73% 2.0 mph NE3.2 kmh NE 6.0 mph9.7 kmh 30.22 in1023.4 mb 0.00 in0.0 mm 0.00 in0.0 mm 0.00 in0.0 mm
03:35 AM 60.3°F15.7°C 51.7°F10.9°C 73% 1.9 mph NE3.1 kmh NE 6.0 mph9.7 kmh 30.22 in1023.4 mb 0.00 in0.0 mm 0.00 in0.0 mm 0.00 in0.0 mm
03:40 AM 60.2°F15.7°C 52.0°F11.1°C 74% 1.6 mph NE2.6 kmh NE 5.0 mph8.0 kmh 30.22 in1023.4 mb 0.00 in0.0 mm 0.00 in0.0 mm 0.00 in0.0 mm
03:45 AM 59.9°F15.5°C 52.1°F11.2°C 75% 1.9 mph NE3.1 kmh NE 4.0 mph6.4 kmh 30.22 in1023.4 mb 0.00 in0.0 mm 0.00 in0.0 mm 0.00 in0.0 mm
03:50 AM 59.8°F15.4°C 52.0°F11.1°C 75% 1.4 mph ENE2.3 kmh ENE 4.0 mph6.4 kmh 30.22 in1023.4 mb 0.00 in0.0 mm 0.00 in0.0 mm 0.00 in0.0 mm
03:55 AM 59.6°F15.3°C 52.1°F11.2°C 76% 1.3 mph NE2.1 kmh NE 4.0 mph6.4 kmh 30.22 in1023.4 mb 0.00 in0.0 mm 0.00 in0.0 mm 0.00 in0.0 mm
04:00 AM 59.5°F15.3°C 52.0°F11.1°C 76% 1.7 mph NE2.7 kmh NE 4.0 mph6.4 kmh 30.22 in1023.4 mb 0.00 in0.0 mm 0.00 in0.0 mm 0.00 in0.0 mm
04:05 AM 59.3°F15.2°C 52.2°F11.2°C 77% 2.3 mph NE3.7 kmh NE 4.0 mph6.4 kmh 30.22 in1023.4 mb 0.00 in0.0 mm 0.00 in0.0 mm 0.00 in0.0 mm
04:10 AM 59.2°F15.1°C 52.1°F11.2°C 77% 1.8 mph NE2.9 kmh NE 4.0 mph6.4 kmh 30.22 in1023.4 mb 0.00 in0.0 mm 0.00 in0.0 mm 0.00 in0.0 mm
04:15 AM 59.1°F15.1°C 52.0°F11.1°C 77% 1.6 mph NE2.6 kmh NE 4.0 mph6.4 kmh 30.22 in1023.4 mb 0.00 in0.0 mm 0.00 in0.0 mm 0.00 in0.0 mm
04:20 AM 58.9°F14.9°C 52.1°F11.2°C 78% 1.9 mph NE3.1 kmh NE 4.0 mph6.4 kmh 30.22 in1023.4 mb 0.00 in0.0 mm 0.00 in0.0 mm 0.00 in0.0 mm
04:25 AM 58.6°F14.8°C 52.2°F11.2°C 79% 1.6 mph NE2.6 kmh NE 4.0 mph6.4 kmh 30.22 in1023.4 mb 0.00 in0.0 mm 0.00 in0.0 mm 0.00 in0.0 mm
04:30 AM 58.5°F14.7°C 52.1°F11.2°C 79% 2.5 mph NE4.0 kmh NE 5.0 mph8.0 kmh 30.22 in1023.4 mb 0.00 in0.0 mm 0.00 in0.0 mm 0.00 in0.0 mm
04:35 AM 58.5°F14.7°C 52.1°F11.2°C 79% 2.0 mph NE3.2 kmh NE 5.0 mph8.0 kmh 30.22 in1023.4 mb 0.00 in0.0 mm 0.00 in0.0 mm 0.00 in0.0 mm
04:40 AM 58.5°F14.7°C 52.1°F11.2°C 79% 2.4 mph NE3.9 kmh NE 5.0 mph8.0 kmh 30.22 in1023.4 mb 0.00 in0.0 mm 0.00 in0.0 mm 0.00 in0.0 mm
04:45 AM 58.4°F14.7°C 52.0°F11.1°C 79% 1.7 mph NE2.7 kmh NE 5.0 mph8.0 kmh 30.23 in1023.7 mb 0.00 in0.0 mm 0.00 in0.0 mm 0.00 in0.0 mm
04:50 AM 58.4°F14.7°C 52.0°F11.1°C 79% 1.9 mph NE3.1 kmh NE 4.0 mph6.4 kmh 30.23 in1023.7 mb 0.00 in0.0 mm 0.00 in0.0 mm 0.00 in0.0 mm
04:55 AM 58.4°F14.7°C 52.3°F11.3°C 80% 1.4 mph NE2.3 kmh NE 4.0 mph6.4 kmh 30.23 in1023.7 mb 0.00 in0.0 mm 0.00 in0.0 mm 0.00 in0.0 mm
05:00 AM 58.2°F14.6°C 52.1°F11.2°C 80% 1.4 mph NNE2.3 kmh NNE 4.0 mph6.4 kmh 30.23 in1023.7 mb 0.00 in0.0 mm 0.00 in0.0 mm 0.00 in0.0 mm
05:05 AM 58.1°F14.5°C 52.3°F11.3°C 81% 1.9 mph NE3.1 kmh NE 4.0 mph6.4 kmh 30.24 in1024.0 mb 0.00 in0.0 mm 0.00 in0.0 mm 0.00 in0.0 mm
05:10 AM 57.9°F14.4°C 52.1°F11.2°C 81% 1.3 mph NE2.1 kmh NE 4.0 mph6.4 kmh 30.23 in1023.7 mb 0.00 in0.0 mm 0.00 in0.0 mm 0.00 in0.0 mm
05:15 AM 57.8°F14.3°C 52.0°F11.1°C 81% 1.9 mph NE3.1 kmh NE 4.0 mph6.4 kmh 30.24 in1024.0 mb 0.00 in0.0 mm 0.00 in0.0 mm 0.00 in0.0 mm
05:20 AM 57.7°F14.3°C 52.2°F11.2°C 82% 2.4 mph NE3.9 kmh NE 5.0 mph8.0 kmh 30.24 in1024.0 mb 0.00 in0.0 mm 0.00 in0.0 mm 0.00 in0.0 mm
05:25 AM 57.6°F14.2°C 52.1°F11.2°C 82% 1.9 mph NE3.1 kmh NE 5.0 mph8.0 kmh 30.24 in1024.0 mb 0.00 in0.0 mm 0.00 in0.0 mm 0.00 in0.0 mm
05:30 AM 57.4°F14.1°C 52.3°F11.3°C 83% 1.1 mph NE1.8 kmh NE 5.0 mph8.0 kmh 30.24 in1024.0 mb 0.00 in0.0 mm 0.00 in0.0 mm 0.00 in0.0 mm
05:35 AM 57.4°F14.1°C 52.3°F11.3°C 83% 1.6 mph N2.6 kmh N 5.0 mph8.0 kmh 30.24 in1024.0 mb 0.00 in0.0 mm 0.00 in0.0 mm 0.00 in0.0 mm
05:40 AM 57.3°F14.1°C 52.2°F11.2°C 83% 1.0 mph NNE1.6 kmh NNE 4.0 mph6.4 kmh 30.25 in1024.4 mb 0.00 in0.0 mm 0.00 in0.0 mm 0.00 in0.0 mm
05:45 AM 57.2°F14.0°C 52.1°F11.2°C 83% 1.3 mph NE2.1 kmh NE 3.0 mph4.8 kmh 30.25 in1024.4 mb 0.00 in0.0 mm 0.00 in0.0 mm 0.00 in0.0 mm
05:50 AM 57.1°F13.9°C 52.0°F11.1°C 83% Calm Calm 3.0 mph4.8 kmh 30.25 in1024.4 mb 0.00 in0.0 mm 0.00 in0.0 mm 0.00 in0.0 mm
05:55 AM 56.9°F13.8°C 52.1°F11.2°C 84% Calm Calm 3.0 mph4.8 kmh 30.25 in1024.4 mb 0.00 in0.0 mm 0.00 in0.0 mm 0.00 in0.0 mm
06:00 AM 56.8°F13.8°C 52.0°F11.1°C 84% 1.0 mph NE1.6 kmh NE 3.0 mph4.8 kmh 30.25 in1024.4 mb 0.00 in0.0 mm 0.00 in0.0 mm 0.00 in0.0 mm
06:05 AM 56.7°F13.7°C 52.2°F11.2°C 85% 1.0 mph NNE1.6 kmh NNE 2.0 mph3.2 kmh 30.25 in1024.4 mb 0.00 in0.0 mm 0.00 in0.0 mm 0.00 in0.0 mm
06:10 AM 56.6°F13.7°C 52.1°F11.2°C 85% 1.4 mph NNE2.3 kmh NNE 2.0 mph3.2 kmh 30.25 in1024.4 mb 0.00 in0.0 mm 0.00 in0.0 mm 0.00 in0.0 mm
06:15 AM 56.5°F13.6°C 52.0°F11.1°C 85% 1.3 mph NE2.1 kmh NE 2.0 mph3.2 kmh 30.26 in1024.7 mb 0.00 in0.0 mm 0.00 in0.0 mm 0.00 in0.0 mm
06:20 AM 56.5°F13.6°C 52.0°F11.1°C 85% 1.3 mph NE2.1 kmh NE 3.0 mph4.8 kmh 30.26 in1024.7 mb 0.00 in0.0 mm 0.00 in0.0 mm 0.00 in0.0 mm
06:25 AM 56.5°F13.6°C 52.4°F11.3°C 86% 2.5 mph NE4.0 kmh NE 5.0 mph8.0 kmh 30.26 in1024.7 mb 0.00 in0.0 mm 0.00 in0.0 mm 0.00 in0.0 mm
06:30 AM 56.5°F13.6°C 52.4°F11.3°C 86% 1.2 mph NE1.9 kmh NE 5.0 mph8.0 kmh 30.26 in1024.7 mb 0.00 in0.0 mm 0.00 in0.0 mm 0.00 in0.0 mm
06:35 AM 56.5°F13.6°C 52.4°F11.3°C 86% 1.3 mph NE2.1 kmh NE 5.0 mph8.0 kmh 30.26 in1024.7 mb 0.00 in0.0 mm 0.00 in0.0 mm 0.00 in0.0 mm
06:40 AM 56.6°F13.7°C 52.5°F11.4°C 86% 1.5 mph NE2.4 kmh NE 5.0 mph8.0 kmh 30.26 in1024.7 mb 0.00 in0.0 mm 0.00 in0.0 mm 0.00 in0.0 mm
06:45 AM 56.7°F13.7°C 52.6°F11.4°C 86% 1.0 mph NNE1.6 kmh NNE 3.0 mph4.8 kmh 30.26 in1024.7 mb 0.00 in0.0 mm 0.00 in0.0 mm 0.00 in0.0 mm
06:50 AM 57.0°F13.9°C 52.8°F11.6°C 86% 1.0 mph NE1.6 kmh NE 3.0 mph4.8 kmh 30.26 in1024.7 mb 0.00 in0.0 mm 0.00 in0.0 mm 0.00 in0.0 mm
06:54 AM 57.2°F14.0°C 53.0°F11.7°C 86% Calm Calm 3.0 mph4.8 kmh 30.27 in1025.1 mb 0.00 in0.0 mm 0.00 in0.0 mm 0.00 in0.0 mm
06:59 AM 57.6°F14.2°C 53.1°F11.7°C 85% 1.4 mph NE2.3 kmh NE 3.0 mph4.8 kmh 30.27 in1025.1 mb 0.00 in0.0 mm 0.00 in0.0 mm 0.00 in0.0 mm
07:04 AM 57.8°F14.3°C 53.3°F11.8°C 85% 1.3 mph NE2.1 kmh NE 3.0 mph4.8 kmh 30.27 in1025.1 mb 0.00 in0.0 mm 0.00 in0.0 mm 0.00 in0.0 mm
07:09 AM 57.8°F14.3°C 53.3°F11.8°C 85% 3.4 mph NE5.5 kmh NE 6.0 mph9.7 kmh 30.27 in1025.1 mb 0.00 in0.0 mm 0.00 in0.0 mm 0.00 in0.0 mm
07:14 AM 58.1°F14.5°C 53.6°F12.0°C 85% 1.0 mph NE1.6 kmh NE 6.0 mph9.7 kmh 30.27 in1025.1 mb 0.00 in0.0 mm 0.00 in0.0 mm 0.00 in0.0 mm
07:19 AM 58.2°F14.6°C 53.7°F12.1°C 85% 2.2 mph NE3.5 kmh NE 7.0 mph11.3 kmh 30.27 in1025.1 mb 0.00 in0.0 mm 0.00 in0.0 mm 0.00 in0.0 mm
07:24 AM 58.4°F14.7°C 53.9°F12.2°C 85% 1.4 mph NE2.3 kmh NE 7.0 mph11.3 kmh 30.27 in1025.1 mb 0.00 in0.0 mm 0.00 in0.0 mm 0.00 in0.0 mm
07:29 AM 58.6°F14.8°C 53.8°F12.1°C 84% 3.2 mph NE5.1 kmh NE 7.0 mph11.3 kmh 30.27 in1025.1 mb 0.00 in0.0 mm 0.00 in0.0 mm 0.00 in0.0 mm
07:34 AM 58.6°F14.8°C 53.8°F12.1°C 84% 3.4 mph NE5.5 kmh NE 8.0 mph12.9 kmh 30.28 in1025.4 mb 0.00 in0.0 mm 0.00 in0.0 mm 0.00 in0.0 mm
07:39 AM 58.8°F14.9°C 54.0°F12.2°C 84% 3.3 mph NE5.3 kmh NE 8.0 mph12.9 kmh 30.28 in1025.4 mb 0.00 in0.0 mm 0.00 in0.0 mm 0.00 in0.0 mm
07:44 AM 59.1°F15.1°C 54.3°F12.4°C 84% 2.4 mph NE3.9 kmh NE 8.0 mph12.9 kmh 30.28 in1025.4 mb 0.00 in0.0 mm 0.00 in0.0 mm 0.00 in0.0 mm
07:49 AM 59.4°F15.2°C 54.3°F12.4°C 83% 4.5 mph NE7.2 kmh NE 8.0 mph12.9 kmh 30.28 in1025.4 mb 0.00 in0.0 mm 0.00 in0.0 mm 0.00 in0.0 mm
07:54 AM 59.7°F15.4°C 54.6°F12.6°C 83% 2.0 mph NE3.2 kmh NE 8.0 mph12.9 kmh 30.28 in1025.4 mb 0.00 in0.0 mm 0.00 in0.0 mm 0.00 in0.0 mm
07:59 AM 60.3°F15.7°C 54.8°F12.7°C 82% 1.6 mph NE2.6 kmh NE 8.0 mph12.9 kmh 30.28 in1025.4 mb 0.00 in0.0 mm 0.00 in0.0 mm 0.00 in0.0 mm
08:04 AM 60.8°F16.0°C 54.6°F12.6°C 80% 3.4 mph ENE5.5 kmh ENE 8.0 mph12.9 kmh 30.28 in1025.4 mb 0.00 in0.0 mm 0.00 in0.0 mm 0.00 in0.0 mm
08:09 AM 61.1°F16.2°C 54.5°F12.5°C 79% 3.4 mph NE5.5 kmh NE 7.0 mph11.3 kmh 30.28 in1025.4 mb 0.00 in0.0 mm 0.00 in0.0 mm 0.00 in0.0 mm
08:14 AM 61.6°F16.4°C 55.0°F12.8°C 79% 3.5 mph NE5.6 kmh NE 7.0 mph11.3 kmh 30.29 in1025.7 mb 0.00 in0.0 mm 0.00 in0.0 mm 0.00 in0.0 mm
08:19 AM 61.9°F16.6°C 55.0°F12.8°C 78% 4.8 mph NE7.7 kmh NE 7.0 mph11.3 kmh 30.29 in1025.7 mb 0.00 in0.0 mm 0.00 in0.0 mm 0.00 in0.0 mm
08:24 AM 62.4°F16.9°C 55.5°F13.1°C 78% 2.2 mph ENE3.5 kmh ENE 7.0 mph11.3 kmh 30.29 in1025.7 mb 0.00 in0.0 mm 0.00 in0.0 mm 0.00 in0.0 mm
08:29 AM 63.0°F17.2°C 55.4°F13.0°C 76% 3.4 mph ENE5.5 kmh ENE 7.0 mph11.3 kmh 30.29 in1025.7 mb 0.00 in0.0 mm 0.00 in0.0 mm 0.00 in0.0 mm
08:34 AM 63.4°F17.4°C 55.8°F13.2°C 76% 3.2 mph ENE5.1 kmh ENE 7.0 mph11.3 kmh 30.29 in1025.7 mb 0.00 in0.0 mm 0.00 in0.0 mm 0.00 in0.0 mm
08:39 AM 64.0°F17.8°C 55.9°F13.3°C 75% 4.3 mph NE6.9 kmh NE 9.0 mph14.5 kmh 30.29 in1025.7 mb 0.00 in0.0 mm 0.00 in0.0 mm 0.00 in0.0 mm
08:44 AM 64.4°F18.0°C 56.1°F13.4°C 74% 3.6 mph ENE5.8 kmh ENE 9.0 mph14.5 kmh 30.28 in1025.4 mb 0.00 in0.0 mm 0.00 in0.0 mm 0.00 in0.0 mm
08:49 AM 65.0°F18.3°C 56.3°F13.5°C 73% 2.8 mph E4.5 kmh E 9.0 mph14.5 kmh 30.28 in1025.4 mb 0.00 in0.0 mm 0.00 in0.0 mm 0.00 in0.0 mm
08:54 AM 65.5°F18.6°C 56.4°F13.6°C 72% 4.3 mph E6.9 kmh E 9.0 mph14.5 kmh 30.28 in1025.4 mb 0.00 in0.0 mm 0.00 in0.0 mm 0.00 in0.0 mm
08:59 AM 66.0°F18.9°C 56.9°F13.8°C 72% 3.8 mph NE6.1 kmh NE 9.0 mph14.5 kmh 30.29 in1025.7 mb 0.00 in0.0 mm 0.00 in0.0 mm 0.00 in0.0 mm
09:04 AM 66.3°F19.1°C 56.6°F13.7°C 71% 3.2 mph NE5.1 kmh NE 10.0 mph16.1 kmh 30.29 in1025.7 mb 0.00 in0.0 mm 0.00 in0.0 mm 0.00 in0.0 mm
09:09 AM 66.4°F19.1°C 56.5°F13.6°C 70% 3.1 mph ENE5.0 kmh ENE 10.0 mph16.1 kmh 30.29 in1025.7 mb 0.00 in0.0 mm 0.00 in0.0 mm 0.00 in0.0 mm
09:14 AM 67.0°F19.4°C 56.7°F13.7°C 69% 4.8 mph ENE7.7 kmh ENE 11.0 mph17.7 kmh 30.29 in1025.7 mb 0.00 in0.0 mm 0.00 in0.0 mm 0.00 in0.0 mm
09:19 AM 67.4°F19.7°C 56.6°F13.7°C 68% 4.1 mph NE6.6 kmh NE 11.0 mph17.7 kmh 30.29 in1025.7 mb 0.00 in0.0 mm 0.00 in0.0 mm 0.00 in0.0 mm
09:24 AM 68.0°F20.0°C 56.4°F13.6°C 66% 5.1 mph ENE8.2 kmh ENE 11.0 mph17.7 kmh 30.29 in1025.7 mb 0.00 in0.0 mm 0.00 in0.0 mm 0.00 in0.0 mm
09:29 AM 68.4°F20.2°C 56.4°F13.6°C 65% 4.3 mph E6.9 kmh E 11.0 mph17.7 kmh 30.29 in1025.7 mb 0.00 in0.0 mm 0.00 in0.0 mm 0.00 in0.0 mm
09:34 AM 68.5°F20.3°C 56.9°F13.8°C 66% 4.5 mph ENE7.2 kmh ENE 10.0 mph16.1 kmh 30.29 in1025.7 mb 0.00 in0.0 mm 0.00 in0.0 mm 0.00 in0.0 mm
09:39 AM 69.0°F20.6°C 57.4°F14.1°C 66% 3.2 mph ENE5.1 kmh ENE 10.0 mph16.1 kmh 30.29 in1025.7 mb 0.00 in0.0 mm 0.00 in0.0 mm 0.00 in0.0 mm
09:44 AM 69.7°F20.9°C 57.2°F14.0°C 64% 3.0 mph E4.8 kmh E 10.0 mph16.1 kmh 30.29 in1025.7 mb 0.00 in0.0 mm 0.00 in0.0 mm 0.00 in0.0 mm
09:49 AM 70.3°F21.3°C 56.9°F13.8°C 62% 2.4 mph E3.9 kmh E 10.0 mph16.1 kmh 30.29 in1025.7 mb 0.00 in0.0 mm 0.00 in0.0 mm 0.00 in0.0 mm
09:54 AM 70.6°F21.4°C 56.7°F13.7°C 61% 3.7 mph E6.0 kmh E 10.0 mph16.1 kmh 30.30 in1026.1 mb 0.00 in0.0 mm 0.00 in0.0 mm 0.00 in0.0 mm
09:59 AM 70.4°F21.3°C 56.3°F13.5°C 61% 5.2 mph NE8.4 kmh NE 10.0 mph16.1 kmh 30.29 in1025.7 mb 0.00 in0.0 mm 0.00 in0.0 mm 0.00 in0.0 mm
10:04 AM 70.7°F21.5°C 55.8°F13.2°C 59% 4.1 mph E6.6 kmh E 11.0 mph17.7 kmh 30.29 in1025.7 mb 0.00 in0.0 mm 0.00 in0.0 mm 0.00 in0.0 mm
10:09 AM 70.8°F21.6°C 55.5°F13.1°C 58% 3.3 mph ENE5.3 kmh ENE 13.0 mph20.9 kmh 30.29 in1025.7 mb 0.00 in0.0 mm 0.00 in0.0 mm 0.00 in0.0 mm
10:14 AM 71.1°F21.7°C 54.8°F12.7°C 56% 7.9 mph NE12.7 kmh NE 14.0 mph22.5 kmh 30.30 in1026.1 mb 0.00 in0.0 mm 0.00 in0.0 mm 0.00 in0.0 mm
10:19 AM 71.0°F21.7°C 54.7°F12.6°C 56% 6.2 mph NE10.0 kmh NE 14.0 mph22.5 kmh 30.30 in1026.1 mb 0.00 in0.0 mm 0.00 in0.0 mm 0.00 in0.0 mm
10:24 AM 71.3°F21.8°C 54.9°F12.7°C 56% 4.9 mph NE7.9 kmh NE 14.0 mph22.5 kmh 30.30 in1026.1 mb 0.00 in0.0 mm 0.00 in0.0 mm 0.00 in0.0 mm
10:29 AM 71.5°F21.9°C 54.1°F12.3°C 54% 4.6 mph NE7.4 kmh NE 14.0 mph22.5 kmh 30.30 in1026.1 mb 0.00 in0.0 mm 0.00 in0.0 mm 0.00 in0.0 mm
10:34 AM 71.9°F22.2°C 54.5°F12.5°C 54% 7.2 mph NE11.6 kmh NE 13.0 mph20.9 kmh 30.30 in1026.1 mb 0.00 in0.0 mm 0.00 in0.0 mm 0.00 in0.0 mm
10:40 AM 72.3°F22.4°C 53.8°F12.1°C 52% 5.0 mph ENE8.0 kmh ENE 13.0 mph20.9 kmh 30.30 in1026.1 mb 0.00 in0.0 mm 0.00 in0.0 mm 0.00 in0.0 mm
10:44 AM 72.5°F22.5°C 54.0°F12.2°C 52% 4.7 mph NE7.6 kmh NE 12.0 mph19.3 kmh 30.30 in1026.1 mb 0.00 in0.0 mm 0.00 in0.0 mm 0.00 in0.0 mm
10:49 AM 73.1°F22.8°C 54.5°F12.5°C 52% 3.1 mph NE5.0 kmh NE 12.0 mph19.3 kmh 30.30 in1026.1 mb 0.00 in0.0 mm 0.00 in0.0 mm 0.00 in0.0 mm
10:55 AM 73.4°F23.0°C 53.1°F11.7°C 49% 6.4 mph NE10.3 kmh NE 11.0 mph17.7 kmh 30.30 in1026.1 mb 0.00 in0.0 mm 0.00 in0.0 mm 0.00 in0.0 mm
10:59 AM 73.5°F23.1°C 52.6°F11.4°C 48% 6.6 mph NE10.6 kmh NE 12.0 mph19.3 kmh 30.30 in1026.1 mb 0.00 in0.0 mm 0.00 in0.0 mm 0.00 in0.0 mm
11:05 AM 73.7°F23.2°C 52.2°F11.2°C 47% 5.4 mph ENE8.7 kmh ENE 12.0 mph19.3 kmh 30.29 in1025.7 mb 0.00 in0.0 mm 0.00 in0.0 mm 0.00 in0.0 mm
11:10 AM 74.3°F23.5°C 52.2°F11.2°C 46% 5.1 mph NE8.2 kmh NE 12.0 mph19.3 kmh 30.29 in1025.7 mb 0.00 in0.0 mm 0.00 in0.0 mm 0.00 in0.0 mm
11:15 AM 74.5°F23.6°C 52.4°F11.3°C 46% 6.4 mph NE10.3 kmh NE 13.0 mph20.9 kmh 30.29 in1025.7 mb 0.00 in0.0 mm 0.00 in0.0 mm 0.00 in0.0 mm
11:20 AM 74.0°F23.3°C 50.7°F10.4°C 44% 5.4 mph NE8.7 kmh NE 13.0 mph20.9 kmh 30.29 in1025.7 mb 0.00 in0.0 mm 0.00 in0.0 mm 0.00 in0.0 mm
11:25 AM 74.6°F23.7°C 52.5°F11.4°C 46% 6.2 mph NE10.0 kmh NE 13.0 mph20.9 kmh 30.29 in1025.7 mb 0.00 in0.0 mm 0.00 in0.0 mm 0.00 in0.0 mm
11:30 AM 74.7°F23.7°C 53.2°F11.8°C 47% 4.7 mph ENE7.6 kmh ENE 13.0 mph20.9 kmh 30.29 in1025.7 mb 0.00 in0.0 mm 0.00 in0.0 mm 0.00 in0.0 mm
11:35 AM 74.7°F23.7°C 52.6°F11.4°C 46% 8.1 mph NE13.0 kmh NE 15.0 mph24.1 kmh 30.29 in1025.7 mb 0.00 in0.0 mm 0.00 in0.0 mm 0.00 in0.0 mm
11:40 AM 75.0°F23.9°C 52.8°F11.6°C 46% 4.1 mph NE6.6 kmh NE 15.0 mph24.1 kmh 30.28 in1025.4 mb 0.00 in0.0 mm 0.00 in0.0 mm 0.00 in0.0 mm
11:45 AM 75.1°F23.9°C 52.9°F11.6°C 46% 1.3 mph SE2.1 kmh SE 15.0 mph24.1 kmh 30.28 in1025.4 mb 0.00 in0.0 mm 0.00 in0.0 mm 0.00 in0.0 mm
11:50 AM 75.4°F24.1°C 53.2°F11.8°C 46% 4.6 mph ENE7.4 kmh ENE 15.0 mph24.1 kmh 30.28 in1025.4 mb 0.00 in0.0 mm 0.00 in0.0 mm 0.00 in0.0 mm
11:54 AM 75.9°F24.4°C 53.6°F12.0°C 46% 6.2 mph E10.0 kmh E 11.0 mph17.7 kmh 30.28 in1025.4 mb 0.00 in0.0 mm 0.00 in0.0 mm 0.00 in0.0 mm
11:59 AM 75.9°F24.4°C 53.6°F12.0°C 46% 2.5 mph ESE4.0 kmh ESE 10.0 mph16.1 kmh 30.28 in1025.4 mb 0.00 in0.0 mm 0.00 in0.0 mm 0.00 in0.0 mm
12:04 PM 76.4°F24.7°C 54.1°F12.3°C 46% 5.9 mph NE9.5 kmh NE 11.0 mph17.7 kmh 30.27 in1025.1 mb 0.00 in0.0 mm 0.00 in0.0 mm 0.00 in0.0 mm
12:09 PM 76.6°F24.8°C 52.4°F11.3°C 43% 5.9 mph NE9.5 kmh NE 13.0 mph20.9 kmh 30.27 in1025.1 mb 0.00 in0.0 mm 0.00 in0.0 mm 0.00 in0.0 mm
12:14 PM 77.0°F25.0°C 52.8°F11.6°C 43% 2.9 mph SE4.7 kmh SE 13.0 mph20.9 kmh 30.27 in1025.1 mb 0.00 in0.0 mm 0.00 in0.0 mm 0.00 in0.0 mm
12:19 PM 77.0°F25.0°C 53.4°F11.9°C 44% 3.3 mph E5.3 kmh E 13.0 mph20.9 kmh 30.27 in1025.1 mb 0.00 in0.0 mm 0.00 in0.0 mm 0.00 in0.0 mm
12:24 PM 76.8°F24.9°C 53.2°F11.8°C 44% 1.3 mph SW2.1 kmh SW 11.0 mph17.7 kmh 30.27 in1025.1 mb 0.00 in0.0 mm 0.00 in0.0 mm 0.00 in0.0 mm
12:29 PM 77.5°F25.3°C 53.2°F11.8°C 43% 4.3 mph E6.9 kmh E 11.0 mph17.7 kmh 30.27 in1025.1 mb 0.00 in0.0 mm 0.00 in0.0 mm 0.00 in0.0 mm
12:34 PM 77.3°F25.2°C 53.0°F11.7°C 43% 3.3 mph E5.3 kmh E 11.0 mph17.7 kmh 30.26 in1024.7 mb 0.00 in0.0 mm 0.00 in0.0 mm 0.00 in0.0 mm
12:39 PM 77.7°F25.4°C 51.4°F10.8°C 40% 4.2 mph NE6.8 kmh NE 9.0 mph14.5 kmh 30.26 in1024.7 mb 0.00 in0.0 mm 0.00 in0.0 mm 0.00 in0.0 mm
12:44 PM 77.8°F25.4°C 52.8°F11.6°C 42% 6.8 mph NE10.9 kmh NE 11.0 mph17.7 kmh 30.26 in1024.7 mb 0.00 in0.0 mm 0.00 in0.0 mm 0.00 in0.0 mm
12:49 PM 78.1°F25.6°C 53.1°F11.7°C 42% 3.8 mph E6.1 kmh E 11.0 mph17.7 kmh 30.26 in1024.7 mb 0.00 in0.0 mm 0.00 in0.0 mm 0.00 in0.0 mm
12:54 PM 77.7°F25.4°C 52.1°F11.2°C 41% 2.0 mph NW3.2 kmh NW 11.0 mph17.7 kmh 30.26 in1024.7 mb 0.00 in0.0 mm 0.00 in0.0 mm 0.00 in0.0 mm
12:59 PM 78.5°F25.8°C 52.8°F11.6°C 41% 3.1 mph NNE5.0 kmh NNE 11.0 mph17.7 kmh 30.25 in1024.4 mb 0.00 in0.0 mm 0.00 in0.0 mm 0.00 in0.0 mm
01:04 PM 79.3°F26.3°C 52.1°F11.2°C 39% 4.3 mph E6.9 kmh E 10.0 mph16.1 kmh 30.25 in1024.4 mb 0.00 in0.0 mm 0.00 in0.0 mm 0.00 in0.0 mm
01:09 PM 79.5°F26.4°C 51.6°F10.9°C 38% 2.7 mph E4.3 kmh E 10.0 mph16.1 kmh 30.25 in1024.4 mb 0.00 in0.0 mm 0.00 in0.0 mm 0.00 in0.0 mm
01:14 PM 79.7°F26.5°C 51.7°F10.9°C 38% 6.4 mph ENE10.3 kmh ENE 11.0 mph17.7 kmh 30.25 in1024.4 mb 0.00 in0.0 mm 0.00 in0.0 mm 0.00 in0.0 mm
01:19 PM 79.7°F26.5°C 52.5°F11.4°C 39% 3.8 mph E6.1 kmh E 11.0 mph17.7 kmh 30.24 in1024.0 mb 0.00 in0.0 mm 0.00 in0.0 mm 0.00 in0.0 mm
01:24 PM 79.5°F26.4°C 51.6°F10.9°C 38% 3.0 mph E4.8 kmh E 11.0 mph17.7 kmh 30.24 in1024.0 mb 0.00 in0.0 mm 0.00 in0.0 mm 0.00 in0.0 mm
01:29 PM 79.4°F26.3°C 52.9°F11.6°C 40% 4.1 mph ENE6.6 kmh ENE 11.0 mph17.7 kmh 30.24 in1024.0 mb 0.00 in0.0 mm 0.00 in0.0 mm 0.00 in0.0 mm
01:34 PM 79.3°F26.3°C 51.4°F10.8°C 38% 5.8 mph E9.3 kmh E 9.0 mph14.5 kmh 30.24 in1024.0 mb 0.00 in0.0 mm 0.00 in0.0 mm 0.00 in0.0 mm
01:39 PM 79.4°F26.3°C 50.7°F10.4°C 37% 4.3 mph NE6.9 kmh NE 10.0 mph16.1 kmh 30.23 in1023.7 mb 0.00 in0.0 mm 0.00 in0.0 mm 0.00 in0.0 mm
01:44 PM 79.7°F26.5°C 51.7°F10.9°C 38% 2.9 mph E4.7 kmh E 10.0 mph16.1 kmh 30.23 in1023.7 mb 0.00 in0.0 mm 0.00 in0.0 mm 0.00 in0.0 mm
01:49 PM 80.2°F26.8°C 53.6°F12.0°C 40% 3.5 mph E5.6 kmh E 10.0 mph16.1 kmh 30.23 in1023.7 mb 0.00 in0.0 mm 0.00 in0.0 mm 0.00 in0.0 mm
01:54 PM 80.1°F26.7°C 52.8°F11.6°C 39% 6.5 mph E10.5 kmh E 12.0 mph19.3 kmh 30.23 in1023.7 mb 0.00 in0.0 mm 0.00 in0.0 mm 0.00 in0.0 mm
01:59 PM 80.0°F26.7°C 52.7°F11.5°C 39% 1.4 mph WNW2.3 kmh WNW 12.0 mph19.3 kmh 30.23 in1023.7 mb 0.00 in0.0 mm 0.00 in0.0 mm 0.00 in0.0 mm
02:04 PM 80.1°F26.7°C 50.0°F10.0°C 35% 6.0 mph ESE9.7 kmh ESE 12.0 mph19.3 kmh 30.23 in1023.7 mb 0.00 in0.0 mm 0.00 in0.0 mm 0.00 in0.0 mm
02:09 PM 80.0°F26.7°C 50.5°F10.3°C 36% 2.5 mph E4.0 kmh E 12.0 mph19.3 kmh 30.23 in1023.7 mb 0.00 in0.0 mm 0.00 in0.0 mm 0.00 in0.0 mm
02:14 PM 80.6°F27.0°C 51.8°F11.0°C 37% 3.9 mph E6.3 kmh E 11.0 mph17.7 kmh 30.23 in1023.7 mb 0.00 in0.0 mm 0.00 in0.0 mm 0.00 in0.0 mm
02:19 PM 80.8°F27.1°C 51.2°F10.7°C 36% 5.2 mph ENE8.4 kmh ENE 11.0 mph17.7 kmh 30.22 in1023.4 mb 0.00 in0.0 mm 0.00 in0.0 mm 0.00 in0.0 mm
02:24 PM 80.9°F27.2°C 51.4°F10.8°C 36% 5.2 mph NE8.4 kmh NE 10.0 mph16.1 kmh 30.22 in1023.4 mb 0.00 in0.0 mm 0.00 in0.0 mm 0.00 in0.0 mm
02:29 PM 81.0°F27.2°C 51.4°F10.8°C 36% 5.2 mph ENE8.4 kmh ENE 11.0 mph17.7 kmh 30.22 in1023.4 mb 0.00 in0.0 mm 0.00 in0.0 mm 0.00 in0.0 mm
02:34 PM 80.9°F27.2°C 52.1°F11.2°C 37% 1.2 mph NNE1.9 kmh NNE 11.0 mph17.7 kmh 30.21 in1023.0 mb 0.00 in0.0 mm 0.00 in0.0 mm 0.00 in0.0 mm
02:39 PM 81.2°F27.3°C 53.2°F11.8°C 38% 7.1 mph ENE11.4 kmh ENE 16.0 mph25.7 kmh 30.21 in1023.0 mb 0.00 in0.0 mm 0.00 in0.0 mm 0.00 in0.0 mm
02:44 PM 81.3°F27.4°C 52.4°F11.3°C 37% 3.8 mph E6.1 kmh E 16.0 mph25.7 kmh 30.21 in1023.0 mb 0.00 in0.0 mm 0.00 in0.0 mm 0.00 in0.0 mm
02:49 PM 81.7°F27.6°C 52.9°F11.6°C 37% 3.3 mph E5.3 kmh E 16.0 mph25.7 kmh 30.21 in1023.0 mb 0.00 in0.0 mm 0.00 in0.0 mm 0.00 in0.0 mm
02:54 PM 81.7°F27.6°C 52.0°F11.1°C 36% 2.9 mph E4.7 kmh E 16.0 mph25.7 kmh 30.21 in1023.0 mb 0.00 in0.0 mm 0.00 in0.0 mm 0.00 in0.0 mm
02:59 PM 81.5°F27.5°C 51.2°F10.7°C 35% 5.6 mph E9.0 kmh E 11.0 mph17.7 kmh 30.21 in1023.0 mb 0.00 in0.0 mm 0.00 in0.0 mm 0.00 in0.0 mm
03:04 PM 81.4°F27.4°C 53.3°F11.8°C 38% 2.4 mph SE3.9 kmh SE 12.0 mph19.3 kmh 30.20 in1022.7 mb 0.00 in0.0 mm 0.00 in0.0 mm 0.00 in0.0 mm
03:09 PM 81.7°F27.6°C 53.5°F11.9°C 38% 2.2 mph SE3.5 kmh SE 12.0 mph19.3 kmh 30.20 in1022.7 mb 0.00 in0.0 mm 0.00 in0.0 mm 0.00 in0.0 mm
03:14 PM 81.9°F27.7°C 53.8°F12.1°C 38% 3.7 mph ESE6.0 kmh ESE 12.0 mph19.3 kmh 30.20 in1022.7 mb 0.00 in0.0 mm 0.00 in0.0 mm 0.00 in0.0 mm
03:19 PM 82.3°F27.9°C 54.1°F12.3°C 38% 3.5 mph ESE5.6 kmh ESE 9.0 mph14.5 kmh 30.20 in1022.7 mb 0.00 in0.0 mm 0.00 in0.0 mm 0.00 in0.0 mm
03:24 PM 82.0°F27.8°C 53.8°F12.1°C 38% 3.0 mph SSE4.8 kmh SSE 9.0 mph14.5 kmh 30.20 in1022.7 mb 0.00 in0.0 mm 0.00 in0.0 mm 0.00 in0.0 mm
03:29 PM 82.1°F27.8°C 53.1°F11.7°C 37% 3.6 mph E5.8 kmh E 9.0 mph14.5 kmh 30.20 in1022.7 mb 0.00 in0.0 mm 0.00 in0.0 mm 0.00 in0.0 mm
03:34 PM 81.9°F27.7°C 52.3°F11.3°C 36% 4.4 mph E7.1 kmh E 9.0 mph14.5 kmh 30.20 in1022.7 mb 0.00 in0.0 mm 0.00 in0.0 mm 0.00 in0.0 mm
03:39 PM 82.1°F27.8°C 52.4°F11.3°C 36% 5.3 mph ESE8.5 kmh ESE 9.0 mph14.5 kmh 30.20 in1022.7 mb 0.00 in0.0 mm 0.00 in0.0 mm 0.00 in0.0 mm
03:44 PM 82.1°F27.8°C 53.1°F11.7°C 37% 1.9 mph ESE3.1 kmh ESE 9.0 mph14.5 kmh 30.20 in1022.7 mb 0.00 in0.0 mm 0.00 in0.0 mm 0.00 in0.0 mm
03:49 PM 82.8°F28.2°C 53.8°F12.1°C 37% 1.7 mph ESE2.7 kmh ESE 9.0 mph14.5 kmh 30.20 in1022.7 mb 0.00 in0.0 mm 0.00 in0.0 mm 0.00 in0.0 mm
03:54 PM 82.9°F28.3°C 53.9°F12.2°C 37% 4.3 mph E6.9 kmh E 9.0 mph14.5 kmh 30.20 in1022.7 mb 0.00 in0.0 mm 0.00 in0.0 mm 0.00 in0.0 mm
03:59 PM 82.5°F28.1°C 53.5°F11.9°C 37% 3.8 mph ENE6.1 kmh ENE 8.0 mph12.9 kmh 30.20 in1022.7 mb 0.00 in0.0 mm 0.00 in0.0 mm 0.00 in0.0 mm
04:04 PM 82.2°F27.9°C 53.2°F11.8°C 37% 6.5 mph NE10.5 kmh NE 11.0 mph17.7 kmh 30.20 in1022.7 mb 0.00 in0.0 mm 0.00 in0.0 mm 0.00 in0.0 mm
04:09 PM 82.3°F27.9°C 54.2°F12.3°C 38% 2.8 mph ENE4.5 kmh ENE 11.0 mph17.7 kmh 30.20 in1022.7 mb 0.00 in0.0 mm 0.00 in0.0 mm 0.00 in0.0 mm
04:14 PM 82.3°F27.9°C 54.1°F12.3°C 38% 3.2 mph NE5.1 kmh NE 11.0 mph17.7 kmh 30.20 in1022.7 mb 0.00 in0.0 mm 0.00 in0.0 mm 0.00 in0.0 mm
04:19 PM 82.3°F27.9°C 54.1°F12.3°C 38% 4.0 mph NE6.4 kmh NE 11.0 mph17.7 kmh 30.20 in1022.7 mb 0.00 in0.0 mm 0.00 in0.0 mm 0.00 in0.0 mm
04:24 PM 82.3°F27.9°C 54.1°F12.3°C 38% 1.9 mph NE3.1 kmh NE 7.0 mph11.3 kmh 30.20 in1022.7 mb 0.00 in0.0 mm 0.00 in0.0 mm 0.00 in0.0 mm
04:29 PM 82.4°F28.0°C 53.4°F11.9°C 37% 3.9 mph E6.3 kmh E 8.0 mph12.9 kmh 30.20 in1022.7 mb 0.00 in0.0 mm 0.00 in0.0 mm 0.00 in0.0 mm
04:34 PM 82.6°F28.1°C 53.6°F12.0°C 37% 3.4 mph SE5.5 kmh SE 8.0 mph12.9 kmh 30.20 in1022.7 mb 0.00 in0.0 mm 0.00 in0.0 mm 0.00 in0.0 mm
04:39 PM 82.4°F28.0°C 53.5°F11.9°C 37% 1.5 mph E2.4 kmh E 8.0 mph12.9 kmh 30.20 in1022.7 mb 0.00 in0.0 mm 0.00 in0.0 mm 0.00 in0.0 mm
04:44 PM 82.5°F28.1°C 54.3°F12.4°C 38% 3.0 mph E4.8 kmh E 8.0 mph12.9 kmh 30.19 in1022.4 mb 0.00 in0.0 mm 0.00 in0.0 mm 0.00 in0.0 mm
04:49 PM 82.4°F28.0°C 54.2°F12.3°C 38% 4.7 mph E7.6 kmh E 9.0 mph14.5 kmh 30.19 in1022.4 mb 0.00 in0.0 mm 0.00 in0.0 mm 0.00 in0.0 mm
04:53 PM 82.1°F27.8°C 54.6°F12.6°C 39% 4.7 mph ENE7.6 kmh ENE 9.0 mph14.5 kmh 30.20 in1022.7 mb 0.00 in0.0 mm 0.00 in0.0 mm 0.00 in0.0 mm
04:58 PM 82.1°F27.8°C 54.6°F12.6°C 39% 1.9 mph ESE3.1 kmh ESE 9.0 mph14.5 kmh 30.20 in1022.7 mb 0.00 in0.0 mm 0.00 in0.0 mm 0.00 in0.0 mm
05:03 PM 82.3°F27.9°C 54.8°F12.7°C 39% 1.7 mph SE2.7 kmh SE 9.0 mph14.5 kmh 30.19 in1022.4 mb 0.00 in0.0 mm 0.00 in0.0 mm 0.00 in0.0 mm
05:08 PM 82.4°F28.0°C 54.2°F12.3°C 38% 1.9 mph S3.1 kmh S 8.0 mph12.9 kmh 30.19 in1022.4 mb 0.00 in0.0 mm 0.00 in0.0 mm 0.00 in0.0 mm
05:13 PM 82.6°F28.1°C 53.6°F12.0°C 37% 2.5 mph E4.0 kmh E 5.0 mph8.0 kmh 30.19 in1022.4 mb 0.00 in0.0 mm 0.00 in0.0 mm 0.00 in0.0 mm
05:18 PM 82.5°F28.1°C 53.5°F11.9°C 37% 3.0 mph ENE4.8 kmh ENE 7.0 mph11.3 kmh 30.19 in1022.4 mb 0.00 in0.0 mm 0.00 in0.0 mm 0.00 in0.0 mm
05:23 PM 82.2°F27.9°C 54.7°F12.6°C 39% 4.1 mph E6.6 kmh E 10.0 mph16.1 kmh 30.19 in1022.4 mb 0.00 in0.0 mm 0.00 in0.0 mm 0.00 in0.0 mm
05:28 PM 82.0°F27.8°C 54.6°F12.6°C 39% 2.4 mph NE3.9 kmh NE 10.0 mph16.1 kmh 30.19 in1022.4 mb 0.00 in0.0 mm 0.00 in0.0 mm 0.00 in0.0 mm
05:33 PM 82.0°F27.8°C 54.6°F12.6°C 39% 2.5 mph NE4.0 kmh NE 10.0 mph16.1 kmh 30.19 in1022.4 mb 0.00 in0.0 mm 0.00 in0.0 mm 0.00 in0.0 mm
05:38 PM 82.0°F27.8°C 54.5°F12.5°C 39% 4.1 mph E6.6 kmh E 9.0 mph14.5 kmh 30.19 in1022.4 mb 0.00 in0.0 mm 0.00 in0.0 mm 0.00 in0.0 mm
05:43 PM 81.9°F27.7°C 54.4°F12.4°C 39% 2.6 mph E4.2 kmh E 9.0 mph14.5 kmh 30.19 in1022.4 mb 0.00 in0.0 mm 0.00 in0.0 mm 0.00 in0.0 mm
05:48 PM 81.8°F27.7°C 54.3°F12.4°C 39% 3.2 mph ENE5.1 kmh ENE 7.0 mph11.3 kmh 30.19 in1022.4 mb 0.00 in0.0 mm 0.00 in0.0 mm 0.00 in0.0 mm
05:53 PM 81.7°F27.6°C 55.0°F12.8°C 40% 3.1 mph E5.0 kmh E 7.0 mph11.3 kmh 30.19 in1022.4 mb 0.00 in0.0 mm 0.00 in0.0 mm 0.00 in0.0 mm
05:58 PM 81.5°F27.5°C 54.8°F12.7°C 40% 1.4 mph ENE2.3 kmh ENE 7.0 mph11.3 kmh 30.19 in1022.4 mb 0.00 in0.0 mm 0.00 in0.0 mm 0.00 in0.0 mm
06:03 PM 81.4°F27.4°C 54.7°F12.6°C 40% 1.3 mph E2.1 kmh E 7.0 mph11.3 kmh 30.19 in1022.4 mb 0.00 in0.0 mm 0.00 in0.0 mm 0.00 in0.0 mm
06:08 PM 81.2°F27.3°C 54.6°F12.6°C 40% 3.7 mph NE6.0 kmh NE 7.0 mph11.3 kmh 30.20 in1022.7 mb 0.00 in0.0 mm 0.00 in0.0 mm 0.00 in0.0 mm
06:13 PM 80.9°F27.2°C 54.9°F12.7°C 41% 2.2 mph ENE3.5 kmh ENE 6.0 mph9.7 kmh 30.20 in1022.7 mb 0.00 in0.0 mm 0.00 in0.0 mm 0.00 in0.0 mm
06:18 PM 80.7°F27.1°C 54.8°F12.7°C 41% 2.3 mph E3.7 kmh E 6.0 mph9.7 kmh 30.20 in1022.7 mb 0.00 in0.0 mm 0.00 in0.0 mm 0.00 in0.0 mm
06:23 PM 80.5°F26.9°C 55.3°F12.9°C 42% 1.8 mph ENE2.9 kmh ENE 6.0 mph9.7 kmh 30.20 in1022.7 mb 0.00 in0.0 mm 0.00 in0.0 mm 0.00 in0.0 mm
06:28 PM 80.3°F26.8°C 55.1°F12.8°C 42% 1.9 mph ENE3.1 kmh ENE 4.0 mph6.4 kmh 30.20 in1022.7 mb 0.00 in0.0 mm 0.00 in0.0 mm 0.00 in0.0 mm
06:33 PM 80.0°F26.7°C 54.8°F12.7°C 42% 1.8 mph E2.9 kmh E 4.0 mph6.4 kmh 30.20 in1022.7 mb 0.00 in0.0 mm 0.00 in0.0 mm 0.00 in0.0 mm
06:38 PM 79.7°F26.5°C 55.2°F12.9°C 43% 1.5 mph E2.4 kmh E 4.0 mph6.4 kmh 30.20 in1022.7 mb 0.00 in0.0 mm 0.00 in0.0 mm 0.00 in0.0 mm
06:43 PM 79.4°F26.3°C 55.0°F12.8°C 43% 1.0 mph ENE1.6 kmh ENE 4.0 mph6.4 kmh 30.20 in1022.7 mb 0.00 in0.0 mm 0.00 in0.0 mm 0.00 in0.0 mm
06:48 PM 79.4°F26.3°C 54.9°F12.7°C 43% 1.4 mph ENE2.3 kmh ENE 3.0 mph4.8 kmh 30.20 in1022.7 mb 0.00 in0.0 mm 0.00 in0.0 mm 0.00 in0.0 mm
06:53 PM 79.3°F26.3°C 54.8°F12.7°C 43% 2.0 mph ENE3.2 kmh ENE 3.0 mph4.8 kmh 30.20 in1022.7 mb 0.00 in0.0 mm 0.00 in0.0 mm 0.00 in0.0 mm
06:58 PM 78.9°F26.1°C 55.1°F12.8°C 44% 1.0 mph ENE1.6 kmh ENE 3.0 mph4.8 kmh 30.20 in1022.7 mb 0.00 in0.0 mm 0.00 in0.0 mm 0.00 in0.0 mm
07:03 PM 78.6°F25.9°C 54.9°F12.7°C 44% Calm Calm 3.0 mph4.8 kmh 30.20 in1022.7 mb 0.00 in0.0 mm 0.00 in0.0 mm 0.00 in0.0 mm
07:08 PM 78.4°F25.8°C 55.3°F12.9°C 45% 1.0 mph ENE1.6 kmh ENE 3.0 mph4.8 kmh 30.20 in1022.7 mb 0.00 in0.0 mm 0.00 in0.0 mm 0.00 in0.0 mm
07:13 PM 78.1°F25.6°C 55.0°F12.8°C 45% 1.0 mph ENE1.6 kmh ENE 1.0 mph1.6 kmh 30.20 in1022.7 mb 0.00 in0.0 mm 0.00 in0.0 mm 0.00 in0.0 mm
07:18 PM 77.7°F25.4°C 55.3°F12.9°C 46% Calm Calm 1.0 mph1.6 kmh 30.20 in1022.7 mb 0.00 in0.0 mm 0.00 in0.0 mm 0.00 in0.0 mm
07:23 PM 77.3°F25.2°C 55.5°F13.1°C 47% 1.0 mph ENE1.6 kmh ENE 1.0 mph1.6 kmh 30.20 in1022.7 mb 0.00 in0.0 mm 0.00 in0.0 mm 0.00 in0.0 mm
07:28 PM 77.1°F25.1°C 55.4°F13.0°C 47% Calm Calm 1.0 mph1.6 kmh 30.20 in1022.7 mb 0.00 in0.0 mm 0.00 in0.0 mm 0.00 in0.0 mm
07:33 PM 76.9°F24.9°C 55.2°F12.9°C 47% 1.0 mph ENE1.6 kmh ENE 1.0 mph1.6 kmh 30.20 in1022.7 mb 0.00 in0.0 mm 0.00 in0.0 mm 0.00 in0.0 mm
07:38 PM 76.7°F24.8°C 55.6°F13.1°C 48% Calm Calm 1.0 mph1.6 kmh 30.21 in1023.0 mb 0.00 in0.0 mm 0.00 in0.0 mm 0.00 in0.0 mm
07:43 PM 76.3°F24.6°C 55.2°F12.9°C 48% 1.0 mph ENE1.6 kmh ENE 1.0 mph1.6 kmh 30.21 in1023.0 mb 0.00 in0.0 mm 0.00 in0.0 mm 0.00 in0.0 mm
07:48 PM 76.1°F24.5°C 55.0°F12.8°C 48% Calm Calm 1.0 mph1.6 kmh 30.21 in1023.0 mb 0.00 in0.0 mm 0.00 in0.0 mm 0.00 in0.0 mm
07:53 PM 75.9°F24.4°C 54.9°F12.7°C 48% 1.0 mph ENE1.6 kmh ENE 1.0 mph1.6 kmh 30.21 in1023.0 mb 0.00 in0.0 mm 0.00 in0.0 mm 0.00 in0.0 mm
07:58 PM 75.9°F24.4°C 54.3°F12.4°C 47% 1.5 mph ENE2.4 kmh ENE 3.0 mph4.8 kmh 30.21 in1023.0 mb 0.00 in0.0 mm 0.00 in0.0 mm 0.00 in0.0 mm
08:03 PM 76.2°F24.6°C 53.9°F12.2°C 46% 1.3 mph ENE2.1 kmh ENE 3.0 mph4.8 kmh 30.21 in1023.0 mb 0.00 in0.0 mm 0.00 in0.0 mm 0.00 in0.0 mm
08:08 PM 76.4°F24.7°C 54.1°F12.3°C 46% 1.4 mph ENE2.3 kmh ENE 3.0 mph4.8 kmh 30.21 in1023.0 mb 0.00 in0.0 mm 0.00 in0.0 mm 0.00 in0.0 mm
08:13 PM 76.4°F24.7°C 54.1°F12.3°C 46% 1.3 mph ENE2.1 kmh ENE 3.0 mph4.8 kmh 30.21 in1023.0 mb 0.00 in0.0 mm 0.00 in0.0 mm 0.00 in0.0 mm
08:18 PM 76.3°F24.6°C 54.0°F12.2°C 46% 1.3 mph NE2.1 kmh NE 3.0 mph4.8 kmh 30.22 in1023.4 mb 0.00 in0.0 mm 0.00 in0.0 mm 0.00 in0.0 mm
08:23 PM 76.1°F24.5°C 54.4°F12.4°C 47% Calm Calm 3.0 mph4.8 kmh 30.22 in1023.4 mb 0.00 in0.0 mm 0.00 in0.0 mm 0.00 in0.0 mm
08:28 PM 75.9°F24.4°C 54.3°F12.4°C 47% 1.9 mph NE3.1 kmh NE 3.0 mph4.8 kmh 30.22 in1023.4 mb 0.00 in0.0 mm 0.00 in0.0 mm 0.00 in0.0 mm
08:33 PM 75.9°F24.4°C 54.2°F12.3°C 47% 1.9 mph NE3.1 kmh NE 4.0 mph6.4 kmh 30.22 in1023.4 mb 0.00 in0.0 mm 0.00 in0.0 mm 0.00 in0.0 mm
08:38 PM 75.8°F24.3°C 54.8°F12.7°C 48% 2.5 mph ENE4.0 kmh ENE 4.0 mph6.4 kmh 30.22 in1023.4 mb 0.00 in0.0 mm 0.00 in0.0 mm 0.00 in0.0 mm
08:43 PM 75.6°F24.2°C 54.6°F12.6°C 48% 1.4 mph ENE2.3 kmh ENE 4.0 mph6.4 kmh 30.22 in1023.4 mb 0.00 in0.0 mm 0.00 in0.0 mm 0.00 in0.0 mm
08:48 PM 75.4°F24.1°C 54.4°F12.4°C 48% 1.7 mph ENE2.7 kmh ENE 4.0 mph6.4 kmh 30.22 in1023.4 mb 0.00 in0.0 mm 0.00 in0.0 mm 0.00 in0.0 mm
08:53 PM 75.3°F24.1°C 54.9°F12.7°C 49% 1.8 mph ENE2.9 kmh ENE 4.0 mph6.4 kmh 30.22 in1023.4 mb 0.00 in0.0 mm 0.00 in0.0 mm 0.00 in0.0 mm
08:58 PM 75.1°F23.9°C 54.7°F12.6°C 49% 1.9 mph ENE3.1 kmh ENE 3.0 mph4.8 kmh 30.22 in1023.4 mb 0.00 in0.0 mm 0.00 in0.0 mm 0.00 in0.0 mm
09:03 PM 74.8°F23.8°C 55.0°F12.8°C 50% 1.5 mph ENE2.4 kmh ENE 4.0 mph6.4 kmh 30.22 in1023.4 mb 0.00 in0.0 mm 0.00 in0.0 mm 0.00 in0.0 mm
09:08 PM 74.8°F23.8°C 55.0°F12.8°C 50% 2.0 mph NE3.2 kmh NE 4.0 mph6.4 kmh 30.22 in1023.4 mb 0.00 in0.0 mm 0.00 in0.0 mm 0.00 in0.0 mm
09:13 PM 74.8°F23.8°C 55.0°F12.8°C 50% 1.5 mph NE2.4 kmh NE 4.0 mph6.4 kmh 30.22 in1023.4 mb 0.00 in0.0 mm 0.00 in0.0 mm 0.00 in0.0 mm
09:18 PM 74.6°F23.7°C 54.8°F12.7°C 50% 1.7 mph ENE2.7 kmh ENE 4.0 mph6.4 kmh 30.22 in1023.4 mb 0.00 in0.0 mm 0.00 in0.0 mm 0.00 in0.0 mm
09:23 PM 74.4°F23.6°C 55.2°F12.9°C 51% 1.7 mph ENE2.7 kmh ENE 4.0 mph6.4 kmh 30.22 in1023.4 mb 0.00 in0.0 mm 0.00 in0.0 mm 0.00 in0.0 mm
09:28 PM 74.3°F23.5°C 55.0°F12.8°C 51% 2.0 mph NE3.2 kmh NE 4.0 mph6.4 kmh 30.22 in1023.4 mb 0.00 in0.0 mm 0.00 in0.0 mm 0.00 in0.0 mm
09:33 PM 74.2°F23.4°C 55.4°F13.0°C 52% 1.6 mph ENE2.6 kmh ENE 4.0 mph6.4 kmh 30.22 in1023.4 mb 0.00 in0.0 mm 0.00 in0.0 mm 0.00 in0.0 mm
09:38 PM 74.0°F23.3°C 55.4°F13.0°C 52% 2.1 mph NE3.4 kmh NE 3.0 mph4.8 kmh 30.23 in1023.7 mb 0.00 in0.0 mm 0.00 in0.0 mm 0.00 in0.0 mm
09:43 PM 73.2°F22.9°C 55.7°F13.2°C 54% Calm Calm 3.0 mph4.8 kmh 30.23 in1023.7 mb 0.00 in0.0 mm 0.00 in0.0 mm 0.00 in0.0 mm
09:48 PM 72.4°F22.4°C 54.9°F12.7°C 54% 1.5 mph NE2.4 kmh NE 3.0 mph4.8 kmh 30.23 in1023.7 mb 0.00 in0.0 mm 0.00 in0.0 mm 0.00 in0.0 mm
09:52 PM 72.0°F22.2°C 55.1°F12.8°C 55% 1.8 mph NE2.9 kmh NE 3.0 mph4.8 kmh 30.23 in1023.7 mb 0.00 in0.0 mm 0.00 in0.0 mm 0.00 in0.0 mm
09:57 PM 71.9°F22.2°C 55.5°F13.1°C 56% 1.1 mph NE1.8 kmh NE 3.0 mph4.8 kmh 30.23 in1023.7 mb 0.00 in0.0 mm 0.00 in0.0 mm 0.00 in0.0 mm
10:02 PM 71.8°F22.1°C 55.4°F13.0°C 56% 1.5 mph NE2.4 kmh NE 3.0 mph4.8 kmh 30.23 in1023.7 mb 0.00 in0.0 mm 0.00 in0.0 mm 0.00 in0.0 mm
10:07 PM 71.7°F22.1°C 55.8°F13.2°C 57% 2.2 mph NE3.5 kmh NE 3.0 mph4.8 kmh 30.23 in1023.7 mb 0.00 in0.0 mm 0.00 in0.0 mm 0.00 in0.0 mm
10:12 PM 71.7°F22.1°C 55.8°F13.2°C 57% 2.5 mph ENE4.0 kmh ENE 5.0 mph8.0 kmh 30.23 in1023.7 mb 0.00 in0.0 mm 0.00 in0.0 mm 0.00 in0.0 mm
10:17 PM 71.6°F22.0°C 56.2°F13.4°C 58% 1.9 mph ENE3.1 kmh ENE 5.0 mph8.0 kmh 30.23 in1023.7 mb 0.00 in0.0 mm 0.00 in0.0 mm 0.00 in0.0 mm
10:22 PM 71.5°F21.9°C 56.1°F13.4°C 58% 1.7 mph ENE2.7 kmh ENE 5.0 mph8.0 kmh 30.23 in1023.7 mb 0.00 in0.0 mm 0.00 in0.0 mm 0.00 in0.0 mm
10:27 PM 71.4°F21.9°C 56.5°F13.6°C 59% 1.7 mph ENE2.7 kmh ENE 5.0 mph8.0 kmh 30.24 in1024.0 mb 0.00 in0.0 mm 0.00 in0.0 mm 0.00 in0.0 mm
10:32 PM 71.2°F21.8°C 56.8°F13.8°C 60% 1.3 mph ENE2.1 kmh ENE 5.0 mph8.0 kmh 30.24 in1024.0 mb 0.00 in0.0 mm 0.00 in0.0 mm 0.00 in0.0 mm
10:37 PM 71.0°F21.7°C 56.6°F13.7°C 60% 1.4 mph ENE2.3 kmh ENE 4.0 mph6.4 kmh 30.24 in1024.0 mb 0.00 in0.0 mm 0.00 in0.0 mm 0.00 in0.0 mm
10:42 PM 70.8°F21.6°C 56.7°F13.7°C 61% 1.2 mph E1.9 kmh E 4.0 mph6.4 kmh 30.25 in1024.4 mb 0.00 in0.0 mm 0.00 in0.0 mm 0.00 in0.0 mm
10:47 PM 70.6°F21.4°C 57.1°F13.9°C 62% 1.2 mph E1.9 kmh E 4.0 mph6.4 kmh 30.25 in1024.4 mb 0.00 in0.0 mm 0.00 in0.0 mm 0.00 in0.0 mm
10:52 PM 70.5°F21.4°C 57.5°F14.2°C 63% 1.6 mph E2.6 kmh E 4.0 mph6.4 kmh 30.24 in1024.0 mb 0.00 in0.0 mm 0.00 in0.0 mm 0.00 in0.0 mm
10:57 PM 70.4°F21.3°C 57.6°F14.2°C 64% 1.9 mph ENE3.1 kmh ENE 3.0 mph4.8 kmh 30.25 in1024.4 mb 0.00 in0.0 mm 0.00 in0.0 mm 0.00 in0.0 mm
11:02 PM 70.2°F21.2°C 57.6°F14.2°C 64% 1.6 mph NE2.6 kmh NE 3.0 mph4.8 kmh 30.25 in1024.4 mb 0.00 in0.0 mm 0.00 in0.0 mm 0.00 in0.0 mm
11:07 PM 69.8°F21.0°C 57.7°F14.3°C 65% 1.0 mph ENE1.6 kmh ENE 3.0 mph4.8 kmh 30.25 in1024.4 mb 0.00 in0.0 mm 0.00 in0.0 mm 0.00 in0.0 mm
11:12 PM 69.5°F20.8°C 57.4°F14.1°C 65% 1.0 mph E1.6 kmh E 3.0 mph4.8 kmh 30.25 in1024.4 mb 0.00 in0.0 mm 0.00 in0.0 mm 0.00 in0.0 mm
11:17 PM 69.3°F20.7°C 57.6°F14.2°C 66% 1.0 mph E1.6 kmh E 3.0 mph4.8 kmh 30.25 in1024.4 mb 0.00 in0.0 mm 0.00 in0.0 mm 0.00 in0.0 mm
11:22 PM 69.4°F20.8°C 58.2°F14.6°C 67% 1.3 mph ENE2.1 kmh ENE 3.0 mph4.8 kmh 30.25 in1024.4 mb 0.00 in0.0 mm 0.00 in0.0 mm 0.00 in0.0 mm
11:27 PM 69.4°F20.8°C 58.2°F14.6°C 67% 1.0 mph E1.6 kmh E 3.0 mph4.8 kmh 30.25 in1024.4 mb 0.00 in0.0 mm 0.00 in0.0 mm 0.00 in0.0 mm
11:32 PM 69.3°F20.7°C 58.5°F14.7°C 68% 1.0 mph E1.6 kmh E 3.0 mph4.8 kmh 30.25 in1024.4 mb 0.00 in0.0 mm 0.00 in0.0 mm 0.00 in0.0 mm
11:37 PM 69.2°F20.7°C 58.2°F14.6°C 68% Calm Calm 3.0 mph4.8 kmh 30.25 in1024.4 mb 0.00 in0.0 mm 0.00 in0.0 mm 0.00 in0.0 mm
11:42 PM 69.1°F20.6°C 58.1°F14.5°C 68% Calm Calm 2.0 mph3.2 kmh 30.25 in1024.4 mb 0.00 in0.0 mm 0.00 in0.0 mm 0.00 in0.0 mm
11:47 PM 68.9°F20.5°C 58.1°F14.5°C 68% Calm Calm 1.0 mph1.6 kmh 30.25 in1024.4 mb 0.00 in0.0 mm 0.00 in0.0 mm 0.00 in0.0 mm
11:52 PM 68.9°F20.5°C 58.5°F14.7°C 69% 1.0 mph E1.6 kmh E 1.0 mph1.6 kmh 30.26 in1024.7 mb 0.00 in0.0 mm 0.00 in0.0 mm 0.00 in0.0 mm
11:57 PM 68.9°F20.5°C 58.9°F14.9°C 70% 1.0 mph ENE1.6 kmh ENE 1.0 mph1.6 kmh 30.25 in1024.4 mb 0.00 in0.0 mm 0.00 in0.0 mm 0.00 in0.0 mm